Country
Station

 

Weather  for  Savannah, Savannah International Airport  -  United States    United States

  
14 °C (57 °F)
    
 
 

Current METAR for Savannah, Savannah International Airport is :

KSAV 191353Z 07013G21KT 10SM OVC060 14/06 A3040 RMK AO2 SLP293 T01440056

 

This is a report for Savannah, Savannah International Airport - United States.
 
The report was made 18 minutes ago, at 13:53 UTC .
The wind was blowing at a speed of 6.7 meters per second (15.0 miles per hour) with gusts up to 10.8 meters per second (24.2 miles per hour) from east/northeast (070°).
 
The temperature was 14 °C (57 °F), with a dew-point at 6 °C (43 °F).
The atmospheric pressure was 1029 hPa (30.40 inHg).
The relative humidity was 58.5%.
 
The sky was overcast from a height of 1829 meter (6000 feet)
 
The overall visibility was 16.1 kilometers (10.0 miles).
 

 
 
 
 

Country :   A   B   C   D   E   F   G   H   I   J   K   L   M   N   O   P   Q   R   S   T   U   V   W   Y   Z

 

Site Info  |  Disclaimer  |  Credits  |  Privacy
Contact us  |  Add to favorites
© 2013-2019 METARs - All rights reserved